createdAt,value
2023-05-21T00:02:18.749Z,16.00
2023-05-21T00:04:45.634Z,15.52
2023-05-21T00:07:12.727Z,16.65
2023-05-21T00:09:39.575Z,17.27
2023-05-21T00:12:09.633Z,17.08
2023-05-21T00:14:36.488Z,15.75
2023-05-21T00:17:02.911Z,17.35
2023-05-21T00:19:29.389Z,16.15
2023-05-21T00:21:56.036Z,16.50
2023-05-21T00:24:22.479Z,16.67
2023-05-21T00:26:48.889Z,17.08
2023-05-21T00:29:15.328Z,17.02
2023-05-21T00:31:41.770Z,17.02
2023-05-21T00:34:08.347Z,16.33
2023-05-21T00:36:34.847Z,16.33
2023-05-21T00:39:02.375Z,16.52
2023-05-21T00:41:30.283Z,17.45
2023-05-21T00:43:57.261Z,17.00
2023-05-21T00:46:23.963Z,16.77
2023-05-21T00:48:50.939Z,16.95
2023-05-21T00:51:18.590Z,16.63
2023-05-21T00:53:46.643Z,16.63
2023-05-21T00:56:13.592Z,17.73
2023-05-21T00:58:40.943Z,17.98
2023-05-21T01:01:07.456Z,16.75
2023-05-21T01:03:38.728Z,16.52
2023-05-21T01:06:06.088Z,17.02
2023-05-21T01:08:34.630Z,16.90
2023-05-21T01:11:03.210Z,16.70
2023-05-21T01:13:31.146Z,16.30
2023-05-21T01:15:59.178Z,17.40
2023-05-21T01:18:26.219Z,17.20
2023-05-21T01:20:53.597Z,16.80
2023-05-21T01:23:20.582Z,16.80
2023-05-21T01:25:47.486Z,17.45
2023-05-21T01:28:14.085Z,16.88
2023-05-21T01:30:42.765Z,16.90
2023-05-21T01:33:26.066Z,17.40
2023-05-21T01:36:04.224Z,17.35
2023-05-21T01:38:41.256Z,15.65
2023-05-21T01:41:11.141Z,17.85
2023-05-21T01:43:41.053Z,17.27
2023-05-21T01:46:10.306Z,17.80
2023-05-21T01:48:38.437Z,17.55
2023-05-21T01:51:06.101Z,17.67
2023-05-21T01:53:32.605Z,17.80
2023-05-21T01:55:59.315Z,18.20
2023-05-21T01:58:25.770Z,18.40
2023-05-21T02:00:52.237Z,18.80
2023-05-21T02:03:20.620Z,19.35
2023-05-21T02:05:47.288Z,18.98
2023-05-21T02:08:15.064Z,19.65
2023-05-21T02:10:41.623Z,18.83
2023-05-21T02:13:08.117Z,19.73
2023-05-21T02:15:34.899Z,19.02
2023-05-21T02:18:01.894Z,19.02
2023-05-21T02:20:28.388Z,18.98
2023-05-21T02:22:54.797Z,19.25
2023-05-21T02:25:21.215Z,19.02
2023-05-21T02:27:47.731Z,19.77
2023-05-21T02:30:16.026Z,19.85
2023-05-21T02:32:43.503Z,20.65
2023-05-21T02:35:11.606Z,19.58
2023-05-21T02:37:40.371Z,20.35
2023-05-21T02:40:07.868Z,21.25
2023-05-21T02:42:34.544Z,19.77
2023-05-21T02:45:00.946Z,21.38
2023-05-21T02:47:27.385Z,22.42
2023-05-21T02:49:53.955Z,21.55
2023-05-21T02:52:23.922Z,22.15
2023-05-21T02:54:50.423Z,21.67
2023-05-21T02:57:18.315Z,21.20
2023-05-21T02:59:45.588Z,20.40
2023-05-21T03:02:12.506Z,21.77
2023-05-21T03:04:39.294Z,23.08
2023-05-21T03:07:06.161Z,22.05
2023-05-21T03:09:32.604Z,21.55
2023-05-21T03:11:59.010Z,23.17
2023-05-21T03:14:25.408Z,21.70
2023-05-21T03:16:51.883Z,21.25
2023-05-21T03:19:18.386Z,23.02
2023-05-21T03:21:44.825Z,22.70
2023-05-21T03:24:13.568Z,22.48
2023-05-21T03:26:39.976Z,22.77
2023-05-21T03:29:06.366Z,24.02
2023-05-21T03:31:32.852Z,23.58
2023-05-21T03:33:59.267Z,23.83
2023-05-21T03:36:25.761Z,22.90
2023-05-21T03:38:52.170Z,23.00
2023-05-21T03:41:18.624Z,24.30
2023-05-21T03:43:45.081Z,23.83
2023-05-21T03:46:11.538Z,24.90
2023-05-21T03:48:37.986Z,24.55
2023-05-21T03:51:04.405Z,24.30
2023-05-21T03:53:30.889Z,24.55
2023-05-21T03:55:57.302Z,26.42
2023-05-21T03:58:24.025Z,24.58
2023-05-21T04:00:50.936Z,24.48
2023-05-21T04:03:18.118Z,25.70
2023-05-21T04:05:44.850Z,24.95
2023-05-21T04:08:11.297Z,24.08
2023-05-21T04:10:37.714Z,25.48
2023-05-21T04:13:04.109Z,24.42
2023-05-21T04:15:30.565Z,24.77
2023-05-21T04:17:57.156Z,24.67
2023-05-21T04:20:23.600Z,24.45
2023-05-21T04:22:50.047Z,24.67
2023-05-21T04:25:16.448Z,25.23
2023-05-21T04:27:43.567Z,24.98
2023-05-21T04:30:11.140Z,23.63
2023-05-21T04:32:38.556Z,24.80
2023-05-21T04:35:05.599Z,24.92
2023-05-21T04:37:35.027Z,24.98
2023-05-21T04:40:04.339Z,23.65
2023-05-21T04:42:32.856Z,24.73
2023-05-21T04:44:59.323Z,23.65
2023-05-21T04:47:25.808Z,24.05
2023-05-21T04:49:53.422Z,23.67
2023-05-21T04:52:19.848Z,24.27
2023-05-21T04:54:47.756Z,24.20
2023-05-21T04:57:14.252Z,23.15
2023-05-21T04:59:41.393Z,24.95
2023-05-21T05:02:07.827Z,24.17
2023-05-21T05:04:34.269Z,24.27
2023-05-21T05:07:00.709Z,23.75
2023-05-21T05:09:27.135Z,23.45
2023-05-21T05:11:53.554Z,24.60
2023-05-21T05:14:19.963Z,22.95
2023-05-21T05:16:48.270Z,23.73
2023-05-21T05:19:14.840Z,23.63
2023-05-21T05:21:41.323Z,22.98
2023-05-21T05:24:07.722Z,22.67
2023-05-21T05:26:34.126Z,23.25
2023-05-21T05:29:01.767Z,23.35
2023-05-21T05:31:28.237Z,22.95
2023-05-21T05:33:55.235Z,22.77
2023-05-21T05:36:22.484Z,23.38
2023-05-21T05:38:48.892Z,22.67
2023-05-21T05:41:15.432Z,22.55
2023-05-21T05:43:41.837Z,22.63
2023-05-21T05:46:08.291Z,22.27
2023-05-21T05:48:34.727Z,21.23
2023-05-21T05:51:01.427Z,21.13
2023-05-21T05:53:27.889Z,20.70
2023-05-21T05:55:54.278Z,20.73
2023-05-21T05:58:20.686Z,20.95
2023-05-21T06:00:47.131Z,21.38
2023-05-21T06:03:13.994Z,20.25
2023-05-21T06:05:40.702Z,20.75
2023-05-21T06:08:07.341Z,20.70
2023-05-21T06:10:33.755Z,20.85
2023-05-21T06:13:00.210Z,20.55
2023-05-21T06:15:26.651Z,20.60
2023-05-21T06:17:53.087Z,19.95
2023-05-21T06:20:19.514Z,19.60
2023-05-21T06:22:45.952Z,19.17
2023-05-21T06:25:12.358Z,19.15
2023-05-21T06:27:38.882Z,19.13
2023-05-21T06:30:07.518Z,19.58
2023-05-21T06:32:34.213Z,18.35
2023-05-21T06:35:01.130Z,18.95
2023-05-21T06:37:27.523Z,18.75
2023-05-21T06:39:53.967Z,19.52
2023-05-21T06:42:20.499Z,19.10
2023-05-21T06:44:46.904Z,19.45
2023-05-21T06:47:13.327Z,18.25
2023-05-21T06:49:39.800Z,18.40
2023-05-21T06:52:06.474Z,18.92
2023-05-21T06:54:32.990Z,19.08
2023-05-21T06:56:59.459Z,18.88
2023-05-21T06:59:26.310Z,18.17
2023-05-21T07:01:52.788Z,18.60
2023-05-21T07:04:19.200Z,19.30
2023-05-21T07:06:45.652Z,17.70
2023-05-21T07:09:12.129Z,17.40
2023-05-21T07:11:38.886Z,18.38
2023-05-21T07:14:05.526Z,17.75
2023-05-21T07:16:31.979Z,17.35
2023-05-21T07:18:58.481Z,16.77
2023-05-21T07:21:24.918Z,17.45
2023-05-21T07:23:51.322Z,16.55
2023-05-21T07:26:17.843Z,16.65
2023-05-21T07:28:45.068Z,16.98
2023-05-21T07:31:12.393Z,16.35
2023-05-21T07:33:39.045Z,15.18
2023-05-21T07:36:06.121Z,15.65
2023-05-21T07:38:32.574Z,15.02
2023-05-21T07:40:59.095Z,14.50
2023-05-21T07:43:25.661Z,13.93
2023-05-21T07:45:52.233Z,14.73
2023-05-21T07:48:18.800Z,14.23
2023-05-21T07:50:45.370Z,14.07
2023-05-21T07:53:11.796Z,14.20
2023-05-21T07:55:38.529Z,14.05
2023-05-21T07:58:05.710Z,13.63
2023-05-21T08:00:42.817Z,14.13
2023-05-21T08:03:09.324Z,14.00
2023-05-21T08:05:36.002Z,12.90
2023-05-21T08:08:02.575Z,13.63
2023-05-21T08:10:28.991Z,12.90
2023-05-21T08:12:55.455Z,12.77
2023-05-21T08:15:22.371Z,13.05
2023-05-21T08:17:48.830Z,13.35
2023-05-21T08:20:15.449Z,12.02
2023-05-21T08:22:43.236Z,15.45
2023-05-21T08:25:09.895Z,16.17
2023-05-21T08:27:36.546Z,14.32
2023-05-21T08:30:03.126Z,19.15
2023-05-21T08:32:29.659Z,13.95
2023-05-21T08:34:57.538Z,13.23
2023-05-21T08:37:23.942Z,12.25
2023-05-21T08:39:50.375Z,12.90
2023-05-21T08:45:05.284Z,12.18
2023-05-21T08:47:34.851Z,11.13
2023-05-21T08:50:06.571Z,12.02
2023-05-21T08:52:33.152Z,11.20
2023-05-21T08:55:00.269Z,11.30
2023-05-21T08:57:27.349Z,10.50
2023-05-21T08:59:54.711Z,10.50
2023-05-21T09:02:21.337Z,11.25
2023-05-21T09:04:49.809Z,11.18
2023-05-21T09:07:17.009Z,11.38
2023-05-21T09:09:54.145Z,11.00
2023-05-21T09:12:20.760Z,10.73
2023-05-21T09:14:47.761Z,11.10
2023-05-21T09:17:15.256Z,11.05
2023-05-21T09:20:12.056Z,10.20
2023-05-21T09:22:41.876Z,9.82
2023-05-21T09:25:09.434Z,10.75
2023-05-21T09:27:36.342Z,9.48
2023-05-21T09:30:11.095Z,9.18
2023-05-21T09:32:38.445Z,9.88
2023-05-21T09:35:10.893Z,10.02
2023-05-21T09:37:45.024Z,9.65
2023-05-21T09:40:13.677Z,9.25
2023-05-21T09:42:40.881Z,9.80
2023-05-21T09:45:11.286Z,9.23
2023-05-21T09:47:43.467Z,9.13
2023-05-21T09:50:14.165Z,10.00
2023-05-21T09:52:42.147Z,9.07
2023-05-21T09:55:13.117Z,9.52
2023-05-21T09:57:44.150Z,12.73
2023-05-21T10:00:24.308Z,9.70
2023-05-21T10:02:55.818Z,10.43
2023-05-21T10:05:25.746Z,11.45
2023-05-21T10:07:58.712Z,23.38
2023-05-21T10:10:27.669Z,22.15
2023-05-21T10:13:10.032Z,9.75
2023-05-21T10:15:41.401Z,10.00
2023-05-21T10:18:10.316Z,10.68
2023-05-21T10:20:38.245Z,10.45
2023-05-21T10:23:05.361Z,9.65
2023-05-21T10:25:32.422Z,8.95
2023-05-21T10:27:58.815Z,9.00
2023-05-21T10:30:25.654Z,8.48
2023-05-21T10:32:52.203Z,8.68
2023-05-21T10:35:18.974Z,8.48
2023-05-21T10:37:45.907Z,7.75
2023-05-21T10:40:13.236Z,8.68
2023-05-21T10:43:11.152Z,8.57
2023-05-21T10:45:55.944Z,7.97
2023-05-21T10:48:52.915Z,8.18
2023-05-21T10:51:25.634Z,7.45
2023-05-21T10:54:18.969Z,7.70
2023-05-21T10:56:54.927Z,8.07
2023-05-21T10:59:36.489Z,7.93
2023-05-21T11:02:03.780Z,7.72
2023-05-21T11:04:30.374Z,7.53
2023-05-21T11:06:59.023Z,7.63
2023-05-21T11:09:26.962Z,7.55
2023-05-21T11:12:01.283Z,6.70
2023-05-21T11:14:36.178Z,6.75
2023-05-21T11:17:15.449Z,6.82
2023-05-21T11:19:43.874Z,6.82
2023-05-21T11:22:25.214Z,7.03
2023-05-21T11:24:52.715Z,6.82
2023-05-21T11:27:41.731Z,6.47
2023-05-21T11:30:10.482Z,6.60
2023-05-21T11:33:12.222Z,6.93
2023-05-21T11:36:02.264Z,7.05
2023-05-21T11:38:31.643Z,6.22
2023-05-21T11:41:03.513Z,6.60
2023-05-21T11:43:30.000Z,6.40
2023-05-21T11:45:56.639Z,6.57
2023-05-21T11:48:27.713Z,6.90
2023-05-21T11:50:54.938Z,6.00
2023-05-21T11:53:21.433Z,5.97
2023-05-21T11:55:47.909Z,7.50
2023-05-21T11:58:19.230Z,6.20
2023-05-21T12:00:45.749Z,6.90
2023-05-21T12:03:14.475Z,6.32
2023-05-21T12:05:48.462Z,6.30
2023-05-21T12:08:25.370Z,5.93
2023-05-21T12:10:59.171Z,6.22
2023-05-21T12:13:26.225Z,5.68
2023-05-21T12:15:54.218Z,6.00
2023-05-21T12:18:21.244Z,5.90
2023-05-21T12:20:47.818Z,6.03
2023-05-21T12:23:26.378Z,5.95
2023-05-21T12:25:53.830Z,5.30
2023-05-21T12:28:24.706Z,5.43
2023-05-21T12:30:51.450Z,5.80
2023-05-21T12:33:18.852Z,5.68
2023-05-21T12:35:48.808Z,5.88
2023-05-21T12:38:15.693Z,6.20
2023-05-21T12:40:43.630Z,5.63
2023-05-21T12:43:10.086Z,6.15
2023-05-21T12:45:39.449Z,5.90
2023-05-21T12:48:06.204Z,5.78
2023-05-21T12:50:33.012Z,6.00
2023-05-21T12:52:59.419Z,6.30
2023-05-21T12:55:26.248Z,6.20
2023-05-21T12:58:03.351Z,5.88
2023-05-21T13:00:29.795Z,6.57
2023-05-21T13:02:57.063Z,5.72
2023-05-21T13:05:23.544Z,6.35
2023-05-21T13:07:51.552Z,5.93
2023-05-21T13:10:18.275Z,6.20
2023-05-21T13:12:45.314Z,6.10
2023-05-21T13:15:11.943Z,5.10
2023-05-21T13:17:38.397Z,5.75
2023-05-21T13:20:12.616Z,5.75
2023-05-21T13:22:42.618Z,6.30
2023-05-21T13:25:12.748Z,5.95
2023-05-21T13:27:39.615Z,5.68
2023-05-21T13:30:07.364Z,5.90
2023-05-21T13:32:34.313Z,5.90
2023-05-21T13:35:00.911Z,5.70
2023-05-21T13:37:27.354Z,6.30
2023-05-21T13:39:53.751Z,6.53
2023-05-21T13:42:21.234Z,6.15
2023-05-21T13:44:47.958Z,6.00
2023-05-21T13:47:14.565Z,5.93
2023-05-21T13:49:41.098Z,6.00
2023-05-21T13:52:08.711Z,5.68
2023-05-21T13:54:36.084Z,5.40
2023-05-21T13:57:03.228Z,5.50
2023-05-21T13:59:31.882Z,5.93
2023-05-21T14:01:59.834Z,5.93
2023-05-21T14:04:26.251Z,5.65
2023-05-21T14:06:52.892Z,5.72
2023-05-21T14:09:19.577Z,5.50
2023-05-21T14:11:46.345Z,5.40
2023-05-21T14:14:18.667Z,6.25
2023-05-21T14:16:47.130Z,5.60
2023-05-21T14:19:14.351Z,5.45
2023-05-21T14:21:41.054Z,5.15
2023-05-21T14:24:07.736Z,5.70
2023-05-21T14:26:34.309Z,5.57
2023-05-21T14:29:02.638Z,5.45
2023-05-21T14:31:29.044Z,5.35
2023-05-21T14:33:55.518Z,5.70
2023-05-21T14:36:21.906Z,5.40
2023-05-21T14:38:48.307Z,5.75
2023-05-21T14:41:14.726Z,5.20
2023-05-21T14:43:41.150Z,5.53
2023-05-21T14:46:07.580Z,5.63
2023-05-21T14:48:34.105Z,5.40
2023-05-21T14:51:00.489Z,5.18
2023-05-21T14:53:27.051Z,5.47
2023-05-21T14:55:54.075Z,5.28
2023-05-21T14:58:20.538Z,5.55
2023-05-21T15:00:46.960Z,5.45
2023-05-21T15:03:13.519Z,5.00
2023-05-21T15:05:40.044Z,5.47
2023-05-21T15:08:08.044Z,4.93
2023-05-21T15:10:35.137Z,5.95
2023-05-21T15:13:02.335Z,5.45
2023-05-21T15:15:28.823Z,5.10
2023-05-21T15:17:57.011Z,5.32
2023-05-21T15:20:23.444Z,5.25
2023-05-21T15:22:49.926Z,5.60
2023-05-21T15:25:19.090Z,5.22
2023-05-21T15:27:45.646Z,5.18
2023-05-21T15:30:12.377Z,5.28
2023-05-21T15:32:38.766Z,4.70
2023-05-21T15:35:05.540Z,4.80
2023-05-21T15:37:33.038Z,5.25
2023-05-21T15:39:59.567Z,4.93
2023-05-21T15:42:26.004Z,5.00
2023-05-21T15:44:52.418Z,5.05
2023-05-21T15:47:19.289Z,5.13
2023-05-21T15:49:45.752Z,5.30
2023-05-21T15:52:12.198Z,5.88
2023-05-21T15:54:38.593Z,5.10
2023-05-21T15:57:05.136Z,4.55
2023-05-21T15:59:31.577Z,4.40
2023-05-21T16:01:58.008Z,4.65
2023-05-21T16:04:24.404Z,4.72
2023-05-21T16:06:50.802Z,4.80
2023-05-21T16:09:17.282Z,4.43
2023-05-21T16:11:46.367Z,5.82
2023-05-21T16:14:12.795Z,4.88
2023-05-21T16:16:39.213Z,5.15
2023-05-21T16:19:05.700Z,4.75
2023-05-21T16:21:32.924Z,4.35
2023-05-21T16:23:59.654Z,4.20
2023-05-21T16:26:26.075Z,4.93
2023-05-21T16:28:52.497Z,7.90
2023-05-21T16:31:18.905Z,4.75
2023-05-21T16:33:45.365Z,4.72
2023-05-21T16:36:11.901Z,4.90
2023-05-21T16:38:38.602Z,4.68
2023-05-21T16:41:05.029Z,4.22
2023-05-21T16:43:31.445Z,4.35
2023-05-21T16:45:57.893Z,4.32
2023-05-21T16:48:24.345Z,4.97
2023-05-21T16:50:50.769Z,4.97
2023-05-21T16:53:17.211Z,4.30
2023-05-21T16:55:43.874Z,5.10
2023-05-21T16:58:10.907Z,4.82
2023-05-21T17:00:37.583Z,4.47
2023-05-21T17:03:04.101Z,5.40
2023-05-21T17:05:30.778Z,5.32
2023-05-21T17:07:57.262Z,4.43
2023-05-21T17:10:24.757Z,4.68
2023-05-21T17:12:51.602Z,5.25
2023-05-21T17:15:18.086Z,5.13
2023-05-21T17:17:44.528Z,5.32
2023-05-21T17:20:11.492Z,5.70
2023-05-21T17:22:37.990Z,5.20
2023-05-21T17:25:04.798Z,4.90
2023-05-21T17:27:31.230Z,5.53
2023-05-21T17:29:57.644Z,5.22
2023-05-21T17:32:24.063Z,5.35
2023-05-21T17:34:50.514Z,4.78
2023-05-21T17:37:16.923Z,7.55
2023-05-21T17:39:43.347Z,14.55
2023-05-21T17:42:09.769Z,8.15
2023-05-21T17:44:36.296Z,19.42
2023-05-21T17:47:02.870Z,9.63
2023-05-21T17:49:29.407Z,5.35
2023-05-21T17:51:56.275Z,5.28
2023-05-21T17:54:22.685Z,7.13
2023-05-21T17:56:49.093Z,5.60
2023-05-21T17:59:16.539Z,5.70
2023-05-21T18:01:43.040Z,4.60
2023-05-21T18:04:10.804Z,5.40
2023-05-21T18:06:37.464Z,5.25
2023-05-21T18:09:04.075Z,6.10
2023-05-21T18:11:30.548Z,5.07
2023-05-21T18:13:56.971Z,5.70
2023-05-21T18:16:23.608Z,5.22
2023-05-21T18:18:50.111Z,4.90
2023-05-21T18:21:16.755Z,5.88
2023-05-21T18:23:43.180Z,5.10
2023-05-21T18:26:09.589Z,4.57
2023-05-21T18:28:36.136Z,7.60
2023-05-21T18:31:04.278Z,5.78
2023-05-21T18:33:31.072Z,6.35
2023-05-21T18:35:58.252Z,6.82
2023-05-21T18:38:24.967Z,7.20
2023-05-21T18:40:51.469Z,5.55
2023-05-21T18:43:18.137Z,6.22
2023-05-21T18:45:45.067Z,5.35
2023-05-21T18:48:14.486Z,5.13
2023-05-21T18:50:41.153Z,5.15
2023-05-21T18:53:07.686Z,4.55
2023-05-21T18:55:34.553Z,4.50
2023-05-21T18:58:01.259Z,4.97
2023-05-21T19:00:27.811Z,4.75
2023-05-21T19:02:55.229Z,4.93
2023-05-21T19:05:22.131Z,4.35
2023-05-21T19:07:48.631Z,4.45
2023-05-21T19:10:15.184Z,4.35
2023-05-21T19:12:43.383Z,4.68
2023-05-21T19:15:10.485Z,4.43
2023-05-21T19:17:38.965Z,5.07
2023-05-21T19:20:09.084Z,4.50
2023-05-21T19:22:37.076Z,4.22
2023-05-21T19:25:04.099Z,4.70
2023-05-21T19:27:30.533Z,5.57
2023-05-21T19:29:56.991Z,6.35
2023-05-21T19:32:26.460Z,4.70
2023-05-21T19:34:52.917Z,4.78
2023-05-21T19:37:19.341Z,5.00
2023-05-21T19:39:49.584Z,4.90
2023-05-21T19:42:17.370Z,4.40
2023-05-21T19:44:43.911Z,4.97
2023-05-21T19:47:10.614Z,5.18
2023-05-21T19:49:37.075Z,4.40
2023-05-21T19:52:04.740Z,4.78
2023-05-21T19:54:31.186Z,4.72
2023-05-21T19:56:57.692Z,4.72
2023-05-21T19:59:24.136Z,4.43
2023-05-21T20:01:50.568Z,5.05
2023-05-21T20:04:17.146Z,5.40
2023-05-21T20:06:43.628Z,4.80
2023-05-21T20:09:12.553Z,4.40
2023-05-21T20:11:39.084Z,5.22
2023-05-21T20:14:05.566Z,4.78
2023-05-21T20:16:31.984Z,4.70
2023-05-21T20:18:58.543Z,4.85
2023-05-21T20:21:25.084Z,4.88
2023-05-21T20:23:51.491Z,6.28
2023-05-21T20:26:19.065Z,5.18
2023-05-21T20:28:48.318Z,5.15
2023-05-21T20:31:14.779Z,4.80
2023-05-21T20:33:41.226Z,4.88
2023-05-21T20:36:07.969Z,4.75
2023-05-21T20:38:37.157Z,5.43
2023-05-21T20:41:04.448Z,7.03
2023-05-21T20:43:30.849Z,5.80
2023-05-21T20:45:59.730Z,5.22
2023-05-21T20:48:31.793Z,6.40
2023-05-21T20:50:59.416Z,4.97
2023-05-21T20:53:25.983Z,5.68
2023-05-21T20:55:54.535Z,5.60
2023-05-21T20:58:22.417Z,5.30
2023-05-21T21:00:50.370Z,5.30
2023-05-21T21:03:17.839Z,4.88
2023-05-21T21:05:44.932Z,5.22
2023-05-21T21:08:12.252Z,5.55
2023-05-21T21:10:41.200Z,5.03
2023-05-21T21:13:09.836Z,5.13
2023-05-21T21:15:36.464Z,5.10
2023-05-21T21:18:03.566Z,5.07
2023-05-21T21:20:30.067Z,5.05
2023-05-21T21:22:56.489Z,5.00
2023-05-21T21:25:22.922Z,4.60
2023-05-21T21:27:49.350Z,5.45
2023-05-21T21:30:15.804Z,5.47
2023-05-21T21:32:42.299Z,6.97
2023-05-21T21:35:09.927Z,5.18
2023-05-21T21:37:36.335Z,5.18
2023-05-21T21:40:02.900Z,4.95
2023-05-21T21:42:29.315Z,5.22
2023-05-21T21:44:55.725Z,6.38
2023-05-21T21:47:22.176Z,5.30
2023-05-21T21:49:49.135Z,5.30
2023-05-21T21:52:17.328Z,5.10
2023-05-21T21:54:43.771Z,5.40
2023-05-21T21:57:10.287Z,5.40
2023-05-21T21:59:38.432Z,5.50
2023-05-21T22:02:05.004Z,5.15
2023-05-21T22:04:31.433Z,5.50
2023-05-21T22:06:57.851Z,5.57
2023-05-21T22:09:24.314Z,5.07
2023-05-21T22:11:50.818Z,5.10
2023-05-21T22:14:18.225Z,4.60
2023-05-21T22:16:45.130Z,4.63
2023-05-21T22:19:12.906Z,4.60
2023-05-21T22:21:39.380Z,4.38
2023-05-21T22:24:06.176Z,4.55
2023-05-21T22:26:32.562Z,4.68
2023-05-21T22:28:59.255Z,4.78
2023-05-21T22:31:26.830Z,5.22
2023-05-21T22:33:53.275Z,4.68
2023-05-21T22:36:19.686Z,4.50
2023-05-21T22:38:46.240Z,4.07
2023-05-21T22:41:12.643Z,4.85
2023-05-21T22:43:39.201Z,4.38
2023-05-21T22:46:05.788Z,4.57
2023-05-21T22:48:32.258Z,4.80
2023-05-21T22:50:58.676Z,4.50
2023-05-21T22:53:25.634Z,4.60
2023-05-21T22:55:52.050Z,4.32
2023-05-21T22:58:18.951Z,4.25
2023-05-21T23:00:46.390Z,4.50
2023-05-21T23:03:13.311Z,4.50
2023-05-21T23:05:39.993Z,4.38
2023-05-21T23:08:06.689Z,4.30
2023-05-21T23:10:33.969Z,4.50
2023-05-21T23:13:00.407Z,4.10
2023-05-21T23:15:29.449Z,4.50
2023-05-21T23:17:57.092Z,4.10
2023-05-21T23:20:24.564Z,4.20
2023-05-21T23:22:50.966Z,4.22
2023-05-21T23:25:17.753Z,4.10
2023-05-21T23:27:44.193Z,4.03
2023-05-21T23:30:11.945Z,4.68
2023-05-21T23:32:38.574Z,4.57
2023-05-21T23:35:05.462Z,4.38
2023-05-21T23:37:31.911Z,4.68
2023-05-21T23:39:58.329Z,4.40
2023-05-21T23:42:24.770Z,4.50
2023-05-21T23:44:51.176Z,4.50
2023-05-21T23:47:17.569Z,4.13
2023-05-21T23:49:43.987Z,4.50
2023-05-21T23:52:13.012Z,4.50
2023-05-21T23:54:39.458Z,3.97
2023-05-21T23:57:06.324Z,3.70
2023-05-21T23:59:32.779Z,3.78
